Time;durP1;ratioP1;P1;durP2;ratioP2;P2;SDS_P1;SDS_P2;PMS_P1;PMS_P2;Temp;Humidity;BMP_temperature;BMP_pressure;BME280_temperature;BME280_humidity;BME280_pressure;Samples;Min_cycle;Max_cycle;Signal;HPM_P1;HPM_P2
2024/02/03 00:02:17;;;;;;;5.90;3.20;;;;;;;11.15;100.00;101042.06;6217954;23;20016;-82
2024/02/03 00:04:43;;;;;;;7.47;3.28;;;;;;;11.32;100.00;101025.53;6216299;23;20566;-82
2024/02/03 00:07:08;;;;;;;3.75;2.53;;;;;;;11.31;100.00;101005.09;6218226;23;20019;-81
2024/02/03 00:09:34;;;;;;;6.20;2.22;;;;;;;11.40;100.00;101011.06;6219087;23;20012;-81
2024/02/03 00:12:00;;;;;;;8.00;3.15;;;;;;;11.46;100.00;101015.06;6217968;23;20439;-81
2024/02/03 00:14:26;;;;;;;5.22;2.47;;;;;;;11.39;100.00;101000.66;6191525;23;20016;-82
2024/02/03 00:16:51;;;;;;;6.07;2.88;;;;;;;11.30;100.00;101008.16;6217962;23;20564;-81
2024/02/03 00:19:17;;;;;;;5.57;2.80;;;;;;;11.34;100.00;101009.00;6191462;23;20043;-81
2024/02/03 00:21:42;;;;;;;8.35;3.05;;;;;;;11.36;100.00;101007.50;6216826;23;20335;-82
2024/02/03 00:24:08;;;;;;;6.55;3.25;;;;;;;11.31;100.00;101013.19;6216130;23;20057;-81
2024/02/03 00:26:33;;;;;;;4.90;2.95;;;;;;;11.31;100.00;101013.19;6217569;23;20005;-82
2024/02/03 00:28:59;;;;;;;8.45;3.90;;;;;;;11.46;100.00;101017.75;6216123;23;20092;-81
2024/02/03 00:31:24;;;;;;;6.03;2.70;;;;;;;11.38;100.00;101013.34;6215056;23;20351;-81
2024/02/03 00:33:50;;;;;;;6.53;2.67;;;;;;;11.37;100.00;101016.38;6226489;23;20017;-81
2024/02/03 00:36:22;;;;;;;7.25;3.40;;;;;;;11.33;100.00;101016.31;6226096;23;20466;-81
2024/02/03 00:38:47;;;;;;;7.97;3.55;;;;;;;11.27;100.00;101006.94;6226166;23;20028;-81
2024/02/03 00:41:13;;;;;;;7.70;2.45;;;;;;;11.49;100.00;101008.19;6225927;23;20004;-81
2024/02/03 00:43:38;;;;;;;6.25;2.90;;;;;;;11.52;100.00;101002.09;6214201;23;20016;-82
2024/02/03 00:46:04;;;;;;;5.63;2.92;;;;;;;11.38;100.00;101007.19;6224978;23;20004;-81
2024/02/03 00:48:29;;;;;;;8.32;2.90;;;;;;;11.36;100.00;101001.34;6214083;23;20312;-80
2024/02/03 00:50:55;;;;;;;5.72;2.83;;;;;;;11.15;100.00;101004.31;6193164;23;20024;-82
2024/02/03 00:53:20;;;;;;;5.32;3.13;;;;;;;11.20;100.00;101012.16;6200143;23;20016;-81
2024/02/03 00:55:46;;;;;;;3.97;2.25;;;;;;;11.27;100.00;101014.22;6205661;23;20402;-81
2024/02/03 00:58:11;;;;;;;5.65;2.92;;;;;;;11.32;100.00;101016.66;6207100;23;20005;-81
2024/02/03 01:00:37;;;;;;;5.85;3.03;;;;;;;11.43;100.00;101023.06;6208626;23;20561;-81
2024/02/03 01:03:02;;;;;;;5.05;2.47;;;;;;;11.46;100.00;101016.97;6200151;23;20000;-80
2024/02/03 01:05:28;;;;;;;7.13;3.55;;;;;;;11.27;100.00;101028.50;6212385;23;20390;-81
2024/02/03 01:07:53;;;;;;;5.80;2.33;;;;;;;11.35;100.00;101018.66;6209793;23;20017;-80
2024/02/03 01:10:19;;;;;;;5.93;3.03;;;;;;;11.13;100.00;101020.06;6210915;23;20493;-79
2024/02/03 01:12:44;;;;;;;5.90;2.90;;;;;;;11.26;100.00;100994.59;6222505;23;20003;-79
2024/02/03 01:15:10;;;;;;;5.80;3.17;;;;;;;11.32;100.00;101009.38;6209742;23;20031;-80
2024/02/03 01:17:36;;;;;;;7.85;3.30;;;;;;;11.20;100.00;101016.75;6211830;23;20020;-80
2024/02/03 01:20:02;;;;;;;5.88;2.97;;;;;;;11.25;100.00;101021.88;6210816;23;20015;-80
2024/02/03 01:22:27;;;;;;;5.22;2.97;;;;;;;11.33;100.00;101013.63;6210627;23;20066;-81
2024/02/03 01:24:53;;;;;;;4.90;2.72;;;;;;;11.21;100.00;101016.41;6219687;23;20548;-79
2024/02/03 01:27:19;;;;;;;5.85;2.85;;;;;;;11.37;100.00;101019.09;6210506;23;20028;-78
2024/02/03 01:29:44;;;;;;;5.93;2.88;;;;;;;11.15;100.00;101019.75;6208060;23;20012;-81
2024/02/03 01:32:10;;;;;;;6.03;3.00;;;;;;;11.21;100.00;101029.09;6218396;23;20518;-79
2024/02/03 01:34:35;;;;;;;5.38;2.95;;;;;;;11.24;100.00;101031.09;6207824;23;20012;-80
2024/02/03 01:37:01;;;;;;;3.25;2.05;;;;;;;11.20;100.00;101030.25;6219423;23;20027;-80
2024/02/03 01:39:26;;;;;;;8.13;2.22;;;;;;;11.36;100.00;101015.59;6211960;23;20035;-80
2024/02/03 01:41:52;;;;;;;2.95;1.85;;;;;;;11.22;100.00;101019.91;6206880;23;20008;-79
2024/02/03 01:44:18;;;;;;;3.78;2.53;;;;;;;11.31;100.00;101034.75;6218586;23;20012;-80
2024/02/03 01:46:45;;;;;;;5.45;2.88;;;;;;;11.36;100.00;101041.81;6210089;23;20067;-80
2024/02/03 01:49:11;;;;;;;5.85;2.50;;;;;;;11.33;100.00;101035.19;6220740;23;20012;-79
2024/02/03 01:51:37;;;;;;;4.63;2.38;;;;;;;11.53;100.00;101049.50;6208123;23;20012;-80
2024/02/03 01:54:05;;;;;;;3.97;2.38;;;;;;;11.57;100.00;101037.69;6212872;23;20015;-80
2024/02/03 01:56:34;;;;;;;5.35;2.50;;;;;;;11.46;100.00;101035.84;6183083;23;20090;-80
2024/02/03 01:59:01;;;;;;;4.38;2.55;;;;;;;11.56;100.00;101043.41;6208650;23;20926;-80
2024/02/03 02:01:26;;;;;;;5.72;2.55;;;;;;;11.53;100.00;101036.03;6212384;23;20024;-78
2024/02/03 02:03:52;;;;;;;5.07;2.85;;;;;;;11.49;100.00;101035.94;6207239;23;20012;-80
2024/02/03 02:06:18;;;;;;;4.65;2.97;;;;;;;11.55;100.00;101031.06;6204184;23;20004;-81
2024/02/03 02:08:43;;;;;;;5.47;2.90;;;;;;;11.43;100.00;101040.03;6215959;23;20032;-80
2024/02/03 02:11:12;;;;;;;5.75;3.13;;;;;;;11.52;100.00;101032.53;6222368;23;20016;-80
2024/02/03 02:13:38;;;;;;;5.22;2.97;;;;;;;11.44;100.00;101021.97;6214679;23;20005;-80
2024/02/03 02:16:04;;;;;;;7.35;3.85;;;;;;;11.36;100.00;101041.81;6227262;23;20497;-80
2024/02/03 02:18:29;;;;;;;6.40;3.00;;;;;;;11.21;100.00;101032.59;6211468;23;20743;-80
2024/02/03 02:20:55;;;;;;;6.90;3.83;;;;;;;11.32;100.00;101032.84;6215018;23;20039;-80
2024/02/03 02:23:21;;;;;;;6.38;3.90;;;;;;;11.47;100.00;101037.44;6225592;23;20012;-80
2024/02/03 02:25:47;;;;;;;8.07;3.53;;;;;;;11.45;100.00;101029.69;6215804;23;20000;-79
2024/02/03 02:28:12;;;;;;;5.72;3.17;;;;;;;11.36;100.00;101037.16;6214811;23;20004;-80
2024/02/03 02:30:37;;;;;;;6.82;3.28;;;;;;;11.39;100.00;101025.69;6191433;23;20020;-80
2024/02/03 02:33:03;;;;;;;7.50;3.97;;;;;;;11.38;100.00;101013.34;6211251;23;20001;-79
2024/02/03 02:35:28;;;;;;;7.00;3.67;;;;;;;11.42;100.00;101016.91;6198520;23;20412;-79
2024/02/03 02:37:54;;;;;;;8.35;3.67;;;;;;;11.56;100.00;101005.63;6186607;23;20142;-81
2024/02/03 02:40:20;;;;;;;8.15;3.78;;;;;;;11.37;100.00;101019.88;6194609;23;20031;-80
2024/02/03 02:42:45;;;;;;;6.18;3.35;;;;;;;11.47;100.00;101018.56;6213593;23;20008;-81
2024/02/03 02:45:11;;;;;;;9.98;3.75;;;;;;;11.59;100.00;101013.81;6213678;23;20013;-80
2024/02/03 02:47:37;;;;;;;7.05;4.03;;;;;;;11.42;100.00;101018.84;6189794;23;20024;-80
2024/02/03 02:50:03;;;;;;;10.88;4.60;;;;;;;11.34;100.00;101019.78;6213235;23;20020;-81
2024/02/03 02:52:29;;;;;;;7.38;4.00;;;;;;;11.33;100.00;101010.13;6224544;23;20027;-80
2024/02/03 02:54:56;;;;;;;4.82;2.80;;;;;;;11.34;100.00;101023.25;6217841;23;20012;-80
2024/02/03 02:57:22;;;;;;;8.15;3.70;;;;;;;11.28;100.00;101013.91;6223829;23;19997;-81
2024/02/03 02:59:50;;;;;;;9.13;3.28;;;;;;;11.44;100.00;101016.56;6215051;23;20008;-81
2024/02/03 03:02:16;;;;;;;6.28;3.13;;;;;;;11.50;100.00;101015.94;6215804;23;20091;-81
2024/02/03 03:04:41;;;;;;;6.82;3.72;;;;;;;11.49;100.00;101013.59;6189207;23;20309;-81
2024/02/03 03:07:07;;;;;;;6.93;2.72;;;;;;;11.42;100.00;101008.03;6214790;23;20008;-81
2024/02/03 03:09:32;;;;;;;8.70;3.53;;;;;;;11.44;100.00;101008.47;6217537;23;20056;-81
2024/02/03 03:11:58;;;;;;;7.05;3.47;;;;;;;11.52;100.00;101002.88;6206715;23;20375;-81
2024/02/03 03:14:23;;;;;;;7.85;3.72;;;;;;;11.37;100.00;100998.31;6225644;23;20440;-80
2024/02/03 03:16:50;;;;;;;8.77;2.90;;;;;;;11.35;100.00;101002.47;6227024;23;20011;-81
2024/02/03 03:19:15;;;;;;;11.32;3.28;;;;;;;11.44;100.00;100995.75;6215906;23;20000;-81
2024/02/03 03:21:40;;;;;;;8.45;4.00;;;;;;;11.38;100.00;100994.47;6221875;23;20123;-82
2024/02/03 03:24:06;;;;;;;5.68;3.47;;;;;;;11.41;100.00;101001.88;6215391;23;20082;-80
2024/02/03 03:26:31;;;;;;;7.50;4.38;;;;;;;11.35;100.00;100991.69;6223778;23;20012;-79
2024/02/03 03:28:57;;;;;;;7.47;3.95;;;;;;;11.53;100.00;101003.66;6216099;23;20328;-79
2024/02/03 03:31:22;;;;;;;4.95;3.25;;;;;;;11.61;100.00;101000.00;6190330;23;20017;-81
2024/02/03 03:33:48;;;;;;;9.25;3.40;;;;;;;11.52;100.00;100997.47;6211809;23;20009;-81
2024/02/03 03:36:13;;;;;;;7.07;3.22;;;;;;;11.47;100.00;100995.06;6216892;23;20000;-82
2024/02/03 03:38:42;;;;;;;9.50;3.40;;;;;;;11.49;100.00;100998.19;6212884;23;20016;-80
2024/02/03 03:41:11;;;;;;;10.45;3.47;;;;;;;11.42;100.00;100997.25;6225474;23;20013;-80
2024/02/03 03:43:37;;;;;;;5.13;2.63;;;;;;;11.44;100.00;100986.91;6213191;23;20023;-80
2024/02/03 03:46:11;;;;;;;4.10;2.42;;;;;;;11.39;100.00;100990.66;6216637;23;20012;-81
2024/02/03 03:48:37;;;;;;;3.83;2.70;;;;;;;11.38;100.00;100991.75;6223920;23;20084;-80
2024/02/03 03:51:02;;;;;;;7.22;3.03;;;;;;;11.49;100.00;100992.00;6211596;23;20050;-80
2024/02/03 04:55:38;;;;;;;6.75;3.25;;;;;;;11.72;100.00;100969.44;6181957;22;20576;-86
2024/02/03 04:58:09;;;;;;;10.60;5.15;;;;;;;11.75;100.00;100970.63;6213121;23;20017;-88
2024/02/03 05:01:04;;;;;;;8.05;3.67;;;;;;;11.52;100.00;100964.31;6213290;23;20018;-87
2024/02/03 05:03:37;;;;;;;7.15;3.60;;;;;;;11.51;100.00;100970.88;6187963;23;20049;-87
2024/02/03 05:06:17;;;;;;;6.10;3.28;;;;;;;11.57;100.00;100972.16;6214006;23;20434;-91
2024/02/03 05:08:58;;;;;;;7.28;3.17;;;;;;;11.69;100.00;100972.06;6188189;23;20016;-88
2024/02/03 05:11:38;;;;;;;6.20;3.13;;;;;;;11.55;100.00;100967.13;6213574;23;20019;-88
2024/02/03 05:14:25;;;;;;;7.90;3.92;;;;;;;11.55;100.00;100972.50;6212860;23;20020;-88
2024/02/03 05:16:59;;;;;;;11.50;4.15;;;;;;;11.57;100.00;100966.75;6211864;23;20016;-88
2024/02/03 05:19:28;;;;;;;9.27;5.18;;;;;;;11.58;100.00;100960.22;6187586;23;20051;-88
2024/02/03 05:21:57;;;;;;;10.15;3.53;;;;;;;11.63;100.00;100962.66;6215318;23;19997;-87
2024/02/03 05:24:30;;;;;;;7.70;4.22;;;;;;;11.65;100.00;100947.69;6227064;23;20036;-91
2024/02/03 05:27:08;;;;;;;6.60;3.65;;;;;;;11.61;100.00;100952.19;6184969;23;20012;-90
2024/02/03 05:29:36;;;;;;;13.77;4.53;;;;;;;11.50;100.00;100955.81;6213773;23;20015;-88
2024/02/03 05:32:17;;;;;;;8.50;4.38;;;;;;;11.60;100.00;100945.25;6221110;23;20016;-88
2024/02/03 05:35:32;;;;;;;8.15;3.85;;;;;;;11.71;100.00;100948.97;6212664;23;20013;-88
2024/02/03 05:38:07;;;;;;;10.80;3.47;;;;;;;11.57;100.00;100945.19;6210776;23;20025;-88
2024/02/03 05:40:35;;;;;;;6.38;3.08;;;;;;;11.70;100.00;100954.72;6187710;23;20040;-87
2024/02/03 05:43:01;;;;;;;6.15;3.08;;;;;;;11.79;100.00;100952.59;6185453;23;20001;-88
2024/02/03 05:45:35;;;;;;;10.07;3.20;;;;;;;11.74;100.00;100959.06;6212571;23;20012;-87
2024/02/03 05:48:04;;;;;;;10.43;3.00;;;;;;;11.75;100.00;100962.53;6213637;23;20655;-90
2024/02/03 05:50:47;;;;;;;5.35;3.15;;;;;;;11.66;100.00;100945.78;6210721;23;20058;-86
2024/02/03 05:53:12;;;;;;;6.95;2.83;;;;;;;11.46;100.00;100947.63;6188455;23;20023;-87
2024/02/03 05:55:38;;;;;;;5.72;2.92;;;;;;;11.59;100.00;100951.75;6211498;23;20012;-88
2024/02/03 05:58:03;;;;;;;3.47;2.30;;;;;;;11.65;100.00;100946.91;6187659;23;20004;-88
2024/02/03 06:00:29;;;;;;;6.30;3.10;;;;;;;11.64;100.00;100959.59;6210560;23;20008;-88
2024/02/03 06:02:56;;;;;;;10.52;3.38;;;;;;;11.50;100.00;100955.81;6187133;23;20047;-87
2024/02/03 06:05:21;;;;;;;7.65;2.97;;;;;;;11.60;100.00;100960.66;6209422;23;20026;-88
2024/02/03 06:07:47;;;;;;;4.90;2.53;;;;;;;11.62;100.00;100953.78;6211000;23;20013;-88
2024/02/03 06:10:13;;;;;;;7.13;3.40;;;;;;;11.69;100.00;100948.53;6221093;23;20032;-88
2024/02/03 06:12:38;;;;;;;4.65;2.85;;;;;;;11.77;100.00;100957.56;6210873;23;20001;-87
2024/02/03 06:15:04;;;;;;;5.32;2.53;;;;;;;11.80;100.00;100954.16;6211847;23;20004;-87
2024/02/03 06:17:36;;;;;;;6.88;2.08;;;;;;;11.79;100.00;100947.19;6186780;23;20012;-89
2024/02/03 06:20:01;;;;;;;10.57;3.25;;;;;;;11.68;100.00;100954.31;6182800;23;20009;-88
2024/02/03 06:22:27;;;;;;;4.57;2.75;;;;;;;11.69;100.00;100956.63;6208463;23;20004;-88
2024/02/03 06:24:52;;;;;;;4.13;2.42;;;;;;;11.69;100.00;100953.94;6211635;23;20019;-87
2024/02/03 06:27:18;;;;;;;5.63;2.92;;;;;;;11.69;100.00;100951.25;6208201;23;20009;-88
2024/02/03 06:29:43;;;;;;;5.18;3.08;;;;;;;11.68;100.00;100957.78;6206906;23;20003;-88
2024/02/03 06:32:11;;;;;;;4.22;2.22;;;;;;;11.59;100.00;100959.09;6213034;23;20008;-88
2024/02/03 06:34:40;;;;;;;4.68;2.65;;;;;;;11.69;100.00;100948.53;6184175;23;20187;-86
2024/02/03 06:37:16;;;;;;;5.80;2.47;;;;;;;11.72;100.00;100960.56;6212942;23;20339;-89
2024/02/03 06:39:45;;;;;;;4.88;2.17;;;;;;;11.74;100.00;100956.38;6214892;23;20083;-86
2024/02/03 06:42:11;;;;;;;6.80;2.33;;;;;;;11.78;100.00;100945.66;6186603;23;20031;-86
2024/02/03 06:44:37;;;;;;;3.78;2.20;;;;;;;11.68;100.00;100952.38;6185710;23;19996;-87
2024/02/03 06:47:05;;;;;;;8.40;2.30;;;;;;;11.90;100.00;100952.81;6187469;23;20012;-87
2024/02/03 06:49:34;;;;;;;3.45;2.38;;;;;;;11.90;100.00;100952.81;6211302;23;20020;-87
2024/02/03 06:52:13;;;;;;;7.38;2.67;;;;;;;11.88;100.00;100953.19;6211443;23;20000;-87
2024/02/03 06:54:45;;;;;;;3.80;2.05;;;;;;;11.83;100.00;100945.34;6209405;23;20017;-88
2024/02/03 06:57:10;;;;;;;3.22;2.20;;;;;;;11.78;100.00;100953.75;6186594;23;20012;-88
2024/02/03 06:59:38;;;;;;;4.80;2.65;;;;;;;11.87;100.00;100965.09;6186225;23;20320;-88
2024/02/03 07:02:13;;;;;;;8.68;2.17;;;;;;;11.93;100.00;100954.78;6211933;23;20004;-87
2024/02/03 07:04:42;;;;;;;4.05;1.60;;;;;;;11.92;100.00;100951.34;6213829;23;20350;-85
2024/02/03 07:07:10;;;;;;;3.40;1.80;;;;;;;11.90;100.00;100963.59;6205978;23;20054;-88
2024/02/03 07:09:36;;;;;;;6.72;2.80;;;;;;;11.92;100.00;100951.34;6211818;23;20012;-89
2024/02/03 07:12:02;;;;;;;4.28;1.98;;;;;;;11.78;100.00;100972.63;6211085;23;20023;-87
2024/02/03 07:14:27;;;;;;;4.40;1.85;;;;;;;11.77;100.00;100976.44;6214569;23;20004;-86
2024/02/03 07:16:55;;;;;;;3.65;2.40;;;;;;;11.89;100.00;100978.22;6234958;23;20031;-87
2024/02/03 07:19:21;;;;;;;2.63;1.60;;;;;;;12.01;100.00;100959.19;6226783;23;20101;-87
2024/02/03 07:21:46;;;;;;;5.28;1.98;;;;;;;11.82;100.00;100961.91;6221215;23;20110;-89
2024/02/03 07:24:20;;;;;;;1.90;1.70;;;;;;;11.79;100.00;100969.56;6224858;23;20020;-87
2024/02/03 07:26:48;;;;;;;5.65;1.65;;;;;;;11.89;100.00;100989.81;6211801;23;20009;-87
2024/02/03 07:29:17;;;;;;;2.40;1.67;;;;;;;12.01;100.00;100984.28;6211218;23;20091;-87
2024/02/03 07:31:43;;;;;;;3.58;2.13;;;;;;;11.97;100.00;100969.13;6217686;23;20008;-87
2024/02/03 07:34:11;;;;;;;3.55;2.10;;;;;;;11.94;100.00;100978.75;6225842;23;20008;-87
2024/02/03 07:36:40;;;;;;;3.75;2.03;;;;;;;11.97;100.00;100986.13;6223179;23;20028;-90
2024/02/03 07:39:14;;;;;;;3.63;1.83;;;;;;;11.86;100.00;100979.72;6216327;23;20009;-86
2024/02/03 07:41:40;;;;;;;2.88;1.85;;;;;;;11.96;100.00;100986.47;6188223;23;20435;-87
2024/02/03 07:44:14;;;;;;;4.80;2.13;;;;;;;11.93;100.00;100979.88;6211683;23;20008;-86
2024/02/03 07:46:40;;;;;;;3.20;2.00;;;;;;;11.96;100.00;100994.56;6209371;23;20481;-88
2024/02/03 07:49:10;;;;;;;4.80;2.30;;;;;;;11.97;100.00;100993.44;6212893;23;20068;-88
2024/02/03 07:51:36;;;;;;;8.43;2.58;;;;;;;12.07;100.00;100999.06;6210888;23;20089;-88
2024/02/03 07:54:01;;;;;;;4.00;2.58;;;;;;;11.98;100.00;100993.06;6220528;23;20459;-86
2024/02/03 07:56:33;;;;;;;6.65;2.20;;;;;;;12.08;100.00;101006.00;6188607;23;20012;-89
2024/02/03 07:59:15;;;;;;;4.10;2.22;;;;;;;12.20;100.00;101005.06;6210705;23;20559;-87
2024/02/03 08:01:41;;;;;;;5.28;2.60;;;;;;;12.13;100.00;101005.72;6213391;23;20350;-89
2024/02/03 08:04:09;;;;;;;5.07;2.67;;;;;;;12.14;100.00;101006.50;6212816;23;20004;-89
2024/02/03 08:07:00;;;;;;;3.65;2.42;;;;;;;12.01;100.00;101013.97;6210736;23;20009;-89
2024/02/03 08:09:29;;;;;;;7.75;3.00;;;;;;;12.09;100.00;101015.69;6207738;23;20020;-89
2024/02/03 08:15:32;;;;;;;4.95;2.47;;;;;;;12.15;100.00;101014.25;6124538;23;20594;-89
2024/02/03 08:17:58;;;;;;;5.07;2.50;;;;;;;12.06;100.00;101010.97;6212531;23;20028;-87
2024/02/03 08:20:23;;;;;;;4.90;2.15;;;;;;;11.90;100.00;101021.06;6210785;23;19996;-86
2024/02/03 08:22:52;;;;;;;8.73;2.63;;;;;;;11.96;100.00;101027.75;6193285;23;20013;-87
2024/02/03 08:25:25;;;;;;;2.88;2.00;;;;;;;11.98;100.00;101025.47;6199439;23;20013;-86
2024/02/03 08:27:56;;;;;;;7.35;2.95;;;;;;;11.91;100.00;101041.50;6161997;23;20513;-87
2024/02/03 08:30:22;;;;;;;4.00;1.75;;;;;;;11.98;100.00;101036.25;6213090;23;20013;-87
2024/02/03 08:32:47;;;;;;;5.00;2.17;;;;;;;11.95;100.00;101038.88;6185378;23;19997;-87
2024/02/03 08:35:19;;;;;;;3.90;2.35;;;;;;;12.04;100.00;101028.69;6209659;23;20551;-88
2024/02/03 08:37:47;;;;;;;3.35;2.13;;;;;;;12.05;100.00;101035.63;6210091;23;20036;-87
2024/02/03 08:40:13;;;;;;;5.22;2.10;;;;;;;12.00;100.00;101031.28;6210059;23;20008;-88
2024/02/03 08:42:46;;;;;;;4.60;2.22;;;;;;;12.03;100.00;101038.69;6185821;23;20058;-88
2024/02/03 08:45:12;;;;;;;3.70;2.17;;;;;;;11.89;100.00;101034.91;6210750;23;20008;-88
2024/02/03 08:47:38;;;;;;;5.22;2.85;;;;;;;11.81;100.00;101036.66;6185296;23;20050;-88
2024/02/03 08:50:09;;;;;;;5.57;2.40;;;;;;;11.93;100.00;101033.84;6192650;23;20013;-89
2024/02/03 08:52:35;;;;;;;4.40;2.72;;;;;;;11.91;100.00;101041.50;6188710;23;20100;-91
2024/02/03 08:55:03;;;;;;;12.00;2.90;;;;;;;12.14;100.00;101042.38;6190580;23;20731;-89
2024/02/03 08:57:29;;;;;;;6.78;2.28;;;;;;;12.08;100.00;101041.09;6184851;23;20411;-88
2024/02/03 08:59:54;;;;;;;3.78;2.42;;;;;;;11.99;100.00;101037.03;6158721;23;20143;-88
2024/02/03 09:02:20;;;;;;;7.80;2.58;;;;;;;12.11;100.00;101035.00;6183584;23;20066;-87
2024/02/03 09:04:48;;;;;;;6.82;2.72;;;;;;;11.93;100.00;101039.25;6157547;23;20080;-89
2024/02/03 09:07:13;;;;;;;4.05;2.13;;;;;;;12.23;100.00;101051.03;6201684;23;20012;-86
2024/02/03 09:09:42;;;;;;;3.53;2.22;;;;;;;12.09;100.00;101044.59;6207411;23;20012;-87
2024/02/03 09:12:08;;;;;;;7.90;2.60;;;;;;;12.01;100.00;101046.34;6208720;23;19997;-86
2024/02/03 09:14:34;;;;;;;9.52;2.45;;;;;;;12.05;100.00;101044.53;6218797;23;20340;-87
2024/02/03 09:16:59;;;;;;;4.53;2.55;;;;;;;12.09;100.00;101050.78;6209833;23;20062;-85
2024/02/03 09:19:26;;;;;;;8.82;2.58;;;;;;;12.02;100.00;101047.91;6200606;23;20458;-86
2024/02/03 09:21:51;;;;;;;2.53;2.00;;;;;;;12.16;100.00;101053.59;6186781;23;20391;-86
2024/02/03 09:24:17;;;;;;;6.28;2.70;;;;;;;12.16;100.00;101042.00;6210698;23;20013;-86
2024/02/03 09:26:45;;;;;;;6.82;2.45;;;;;;;12.18;100.00;101043.22;6184581;23;20339;-87
2024/02/03 09:29:11;;;;;;;8.82;2.90;;;;;;;11.97;100.00;101056.28;6210361;23;20031;-87
2024/02/03 09:31:37;;;;;;;8.70;2.58;;;;;;;11.97;100.00;101050.91;6208255;23;20024;-84
2024/02/03 09:34:04;;;;;;;5.40;2.40;;;;;;;12.09;100.00;101048.06;6211487;23;20008;-88
2024/02/03 09:36:39;;;;;;;5.25;2.22;;;;;;;12.02;100.00;101042.50;6202423;23;20027;-86
2024/02/03 09:39:05;;;;;;;6.65;2.83;;;;;;;12.07;100.00;101055.75;6186110;23;20013;-85
2024/02/03 09:41:31;;;;;;;12.73;3.08;;;;;;;12.20;100.00;101053.66;6191454;23;20013;-85
2024/02/03 09:43:58;;;;;;;6.40;2.38;;;;;;;11.99;100.00;101048.63;6167229;23;20000;-85
2024/02/03 09:46:23;;;;;;;5.82;2.05;;;;;;;12.14;100.00;101055.09;6187445;23;20008;-87
2024/02/03 09:48:49;;;;;;;8.85;3.03;;;;;;;12.17;100.00;101057.88;6161665;23;20022;-84
2024/02/03 09:51:14;;;;;;;3.20;2.22;;;;;;;12.06;100.00;101053.41;6188286;23;20442;-86
2024/02/03 09:53:42;;;;;;;4.95;2.33;;;;;;;12.13;100.00;101051.63;6186184;23;20528;-89
2024/02/03 09:56:09;;;;;;;5.22;2.63;;;;;;;12.16;100.00;101050.91;6180409;23;20074;-85
2024/02/03 09:58:34;;;;;;;6.70;2.58;;;;;;;12.20;100.00;101054.47;6193713;23;20004;-86
2024/02/03 10:01:00;;;;;;;9.27;2.90;;;;;;;12.19;100.00;101050.22;6189327;23;20012;-86
2024/02/03 10:03:28;;;;;;;6.65;2.63;;;;;;;12.14;100.00;101055.09;6188882;23;20024;-86
2024/02/03 10:06:05;;;;;;;3.60;1.88;;;;;;;12.16;100.00;101064.41;6190203;23;20478;-87
2024/02/03 10:08:33;;;;;;;4.93;2.65;;;;;;;12.27;100.00;101060.00;6198413;23;20024;-87
2024/02/03 10:10:59;;;;;;;7.00;2.55;;;;;;;12.24;100.00;101066.13;6188628;23;20032;-87
2024/02/03 10:13:28;;;;;;;7.28;2.55;;;;;;;12.32;100.00;101067.81;6206406;23;20013;-86
2024/02/03 10:16:06;;;;;;;12.93;3.22;;;;;;;12.35;100.00;101067.09;6209083;23;20017;-87
2024/02/03 10:18:34;;;;;;;8.48;2.80;;;;;;;12.29;100.00;101060.41;6195566;23;20020;-87
2024/02/03 10:21:01;;;;;;;5.03;2.92;;;;;;;12.39;100.00;101059.06;6200963;23;20075;-86
2024/02/03 10:23:27;;;;;;;4.78;2.58;;;;;;;12.17;100.00;101059.78;6202073;23;20011;-88
2024/02/03 10:25:59;;;;;;;9.18;3.15;;;;;;;12.16;100.00;101069.81;6163446;23;20048;-86
2024/02/03 10:28:24;;;;;;;6.35;2.65;;;;;;;11.91;100.00;101063.09;6175867;23;20051;-86
2024/02/03 10:30:51;;;;;;;6.15;2.70;;;;;;;12.01;100.00;101075.25;6180436;23;20005;-86
2024/02/03 10:33:48;;;;;;;4.20;2.30;;;;;;;12.09;100.00;101075.06;6178651;23;20548;-87
2024/02/03 10:36:16;;;;;;;6.28;2.95;;;;;;;12.11;100.00;101072.00;6188503;23;20506;-87
2024/02/03 10:38:42;;;;;;;5.00;2.38;;;;;;;12.17;100.00;101082.19;6191628;23;20083;-87
2024/02/03 10:41:20;;;;;;;6.72;3.15;;;;;;;12.20;100.00;101081.47;6201048;23;20012;-86
2024/02/03 10:44:11;;;;;;;5.18;2.47;;;;;;;12.09;100.00;101077.78;6198335;23;20039;-87
2024/02/03 10:47:17;;;;;;;4.60;2.97;;;;;;;12.11;100.00;101075.50;6189448;23;20390;-87
2024/02/03 10:49:50;;;;;;;10.98;3.05;;;;;;;12.15;100.00;101079.06;6187760;23;20109;-87
2024/02/03 10:52:19;;;;;;;4.80;2.63;;;;;;;12.21;100.00;101077.63;6188847;23;20005;-86
2024/02/03 10:55:20;;;;;;;7.63;3.83;;;;;;;12.37;100.00;101078.34;6189718;23;20017;-87
2024/02/03 10:58:00;;;;;;;5.93;2.97;;;;;;;12.27;100.00;101072.72;6136754;23;20047;-86
2024/02/03 11:00:30;;;;;;;7.32;3.28;;;;;;;12.24;100.00;101065.31;6192740;23;20493;-86
2024/02/03 11:03:33;;;;;;;5.68;2.13;;;;;;;12.38;100.00;101071.03;6167061;23;20008;-87
2024/02/03 11:06:31;;;;;;;7.18;2.38;;;;;;;12.39;100.00;101067.97;6130726;23;20017;-88
2024/02/03 11:10:01;;;;;;;;;;;;;;;;;;;;;
2024/02/03 11:17:04;;;;;;;3.20;2.20;;;;;;;12.43;100.00;101070.72;6111978;23;20077;-87
2024/02/03 11:19:36;;;;;;;5.72;1.75;;;;;;;12.37;100.00;101066.75;6120167;23;20350;-86
2024/02/03 11:22:03;;;;;;;4.05;2.08;;;;;;;12.44;100.00;101070.38;6170931;23;20045;-88
2024/02/03 11:25:24;;;;;;;;;;;;;;;;;;;;;
2024/02/03 11:29:15;;;;;;;4.15;1.98;;;;;;;12.53;100.00;101062.84;6175145;23;20016;-87
2024/02/03 11:32:09;;;;;;;;;;;;;;;;;;;;;
2024/02/03 11:34:41;;;;;;;2.97;1.95;;;;;;;12.49;100.00;101047.69;6207247;23;20358;-87
2024/02/03 11:48:58;;;;;;;2.05;1.50;;;;;;;12.30;100.00;101039.59;6146476;22;20050;-86
2024/02/03 11:51:39;;;;;;;5.80;3.05;;;;;;;12.35;100.00;101026.59;6112354;23;20017;-89
2024/02/03 11:54:05;;;;;;;3.53;1.65;;;;;;;12.20;100.00;101015.88;6146894;23;20020;-88
2024/02/03 11:56:32;;;;;;;5.20;2.83;;;;;;;12.07;100.00;101012.56;6118490;23;20011;-85
2024/02/03 11:59:58;;;;;;;;;;;;;;;;;;;;;
2024/02/03 12:03:44;;;;;;;5.47;2.28;;;;;;;12.15;100.00;101019.66;6144786;23;20084;-89
2024/02/03 12:06:27;;;;;;;;;;;;;;;;;;;;;
2024/02/03 12:09:30;;;;;;;7.38;2.55;;;;;;;12.35;100.00;101023.88;6153270;23;20016;-88
2024/02/03 12:12:23;;;;;;;5.70;2.30;;;;;;;12.38;100.00;101022.41;6174199;23;20015;-87
2024/02/03 12:15:17;;;;;;;7.43;2.35;;;;;;;12.36;100.00;101014.66;6203132;23;20086;-87
2024/02/03 12:18:01;;;;;;;2.92;1.98;;;;;;;12.41;100.00;101025.16;6168581;23;20095;-86
2024/02/03 12:20:29;;;;;;;7.25;2.08;;;;;;;12.36;100.00;101022.78;6153685;23;20490;-85
2024/02/03 12:22:59;;;;;;;3.13;2.10;;;;;;;12.34;100.00;101025.03;6178664;23;20084;-88
2024/02/03 12:25:27;;;;;;;3.08;2.05;;;;;;;12.23;100.00;101015.94;6170043;23;20058;-85
2024/02/03 12:27:56;;;;;;;5.03;1.73;;;;;;;12.20;100.00;101032.06;6132166;23;20354;-86
2024/02/03 12:30:22;;;;;;;4.25;2.08;;;;;;;12.21;100.00;101026.34;6128298;23;20055;-85
2024/02/03 12:32:52;;;;;;;6.55;1.90;;;;;;;12.08;100.00;101037.63;6143222;23;20083;-88
2024/02/03 12:35:26;;;;;;;3.05;2.05;;;;;;;12.18;100.00;101031.66;6150508;23;20099;-86
2024/02/03 12:38:06;;;;;;;6.32;2.55;;;;;;;12.19;100.00;101023.22;6161110;23;20075;-88
2024/02/03 12:40:32;;;;;;;4.82;1.77;;;;;;;12.42;100.00;101020.56;6173638;23;20079;-87
2024/02/03 12:43:34;;;;;;;5.38;2.13;;;;;;;12.34;100.00;101008.06;6176713;23;20017;-89
2024/02/03 12:46:16;;;;;;;;;;;;;;;;;;;;;
2024/02/03 12:49:46;;;;;;;6.03;1.75;;;;;;;12.22;100.00;101019.00;6173887;23;20019;-85
2024/02/03 12:52:14;;;;;;;4.55;2.30;;;;;;;12.20;100.00;101010.47;6082943;23;20015;-87
2024/02/03 12:58:37;;;;;;;4.65;1.75;;;;;;;12.20;100.00;101003.16;6071769;23;20010;-93
2024/02/03 13:01:09;;;;;;;6.90;1.63;;;;;;;12.15;100.00;101010.78;6039074;23;20010;-87
2024/02/03 13:04:16;;;;;;;3.25;1.77;;;;;;;12.21;100.00;100999.34;6043735;23;20026;-87
2024/02/03 13:07:13;;;;;;;;;;;;;;;;;;;;;
2024/02/03 13:10:33;;;;;;;;;;;;;;;;;;;;;
2024/02/03 13:13:39;;;;;;;6.38;2.00;;;;;;;12.04;100.00;100994.34;6170160;23;20024;-91